sensor_id;sensor_type;location;lat;lon;timestamp;P1;durP1;ratioP1;P2;durP2;ratioP2
38089;SDS011;23904;52.322;10.232;2023-06-14T00:00:39;5.53;;;3.08;;
38089;SDS011;23904;52.322;10.232;2023-06-14T00:03:06;5.50;;;2.90;;
38089;SDS011;23904;52.322;10.232;2023-06-14T00:05:34;3.72;;;2.80;;
38089;SDS011;23904;52.322;10.232;2023-06-14T00:08:05;6.93;;;3.47;;
38089;SDS011;23904;52.322;10.232;2023-06-14T00:10:37;6.10;;;3.33;;
38089;SDS011;23904;52.322;10.232;2023-06-14T00:13:06;5.90;;;3.15;;
38089;SDS011;23904;52.322;10.232;2023-06-14T00:15:33;4.30;;;2.70;;
38089;SDS011;23904;52.322;10.232;2023-06-14T00:17:59;6.10;;;2.80;;
38089;SDS011;23904;52.322;10.232;2023-06-14T00:20:26;4.53;;;2.80;;
38089;SDS011;23904;52.322;10.232;2023-06-14T00:22:57;8.73;;;2.80;;
38089;SDS011;23904;52.322;10.232;2023-06-14T00:25:26;6.72;;;2.85;;
38089;SDS011;23904;52.322;10.232;2023-06-14T00:27:55;5.35;;;3.50;;
38089;SDS011;23904;52.322;10.232;2023-06-14T00:30:22;7.78;;;3.35;;
38089;SDS011;23904;52.322;10.232;2023-06-14T00:32:48;7.88;;;3.03;;
38089;SDS011;23904;52.322;10.232;2023-06-14T00:35:15;4.97;;;3.00;;
38089;SDS011;23904;52.322;10.232;2023-06-14T00:37:40;8.55;;;3.10;;
38089;SDS011;23904;52.322;10.232;2023-06-14T00:40:06;3.60;;;2.50;;
38089;SDS011;23904;52.322;10.232;2023-06-14T00:42:32;5.18;;;2.90;;
38089;SDS011;23904;52.322;10.232;2023-06-14T00:44:59;6.55;;;2.70;;
38089;SDS011;23904;52.322;10.232;2023-06-14T00:47:25;5.03;;;2.90;;
38089;SDS011;23904;52.322;10.232;2023-06-14T00:49:51;5.60;;;2.83;;
38089;SDS011;23904;52.322;10.232;2023-06-14T00:52:18;5.72;;;2.88;;
38089;SDS011;23904;52.322;10.232;2023-06-14T00:54:45;6.32;;;3.03;;
38089;SDS011;23904;52.322;10.232;2023-06-14T00:57:11;5.18;;;2.95;;
38089;SDS011;23904;52.322;10.232;2023-06-14T00:59:38;4.72;;;2.70;;
38089;SDS011;23904;52.322;10.232;2023-06-14T01:02:07;5.20;;;2.90;;
38089;SDS011;23904;52.322;10.232;2023-06-14T01:04:33;10.15;;;2.70;;
38089;SDS011;23904;52.322;10.232;2023-06-14T01:15:38;5.07;;;2.85;;
38089;SDS011;23904;52.322;10.232;2023-06-14T01:18:06;4.75;;;2.72;;
38089;SDS011;23904;52.322;10.232;2023-06-14T01:20:32;6.88;;;3.05;;
38089;SDS011;23904;52.322;10.232;2023-06-14T01:23:02;7.15;;;3.08;;
38089;SDS011;23904;52.322;10.232;2023-06-14T01:25:28;3.83;;;2.88;;
38089;SDS011;23904;52.322;10.232;2023-06-14T01:27:58;5.80;;;3.55;;
38089;SDS011;23904;52.322;10.232;2023-06-14T01:30:28;5.50;;;2.90;;
38089;SDS011;23904;52.322;10.232;2023-06-14T01:32:55;3.83;;;2.78;;
38089;SDS011;23904;52.322;10.232;2023-06-14T01:35:22;5.00;;;2.65;;
38089;SDS011;23904;52.322;10.232;2023-06-14T01:37:48;4.93;;;2.90;;
38089;SDS011;23904;52.322;10.232;2023-06-14T01:40:15;4.13;;;2.50;;
38089;SDS011;23904;52.322;10.232;2023-06-14T01:42:42;5.90;;;2.35;;
38089;SDS011;23904;52.322;10.232;2023-06-14T01:45:11;23.50;;;3.50;;
38089;SDS011;23904;52.322;10.232;2023-06-14T01:47:38;5.10;;;2.58;;
38089;SDS011;23904;52.322;10.232;2023-06-14T01:50:05;4.38;;;2.85;;
38089;SDS011;23904;52.322;10.232;2023-06-14T01:52:31;4.38;;;2.88;;
38089;SDS011;23904;52.322;10.232;2023-06-14T01:54:56;6.47;;;2.40;;
38089;SDS011;23904;52.322;10.232;2023-06-14T01:57:23;4.47;;;2.63;;
38089;SDS011;23904;52.322;10.232;2023-06-14T01:59:50;3.53;;;2.30;;
38089;SDS011;23904;52.322;10.232;2023-06-14T02:02:15;3.90;;;2.60;;
38089;SDS011;23904;52.322;10.232;2023-06-14T02:04:41;7.05;;;2.67;;
38089;SDS011;23904;52.322;10.232;2023-06-14T02:07:07;5.32;;;2.70;;
38089;SDS011;23904;52.322;10.232;2023-06-14T02:09:33;5.30;;;2.58;;
38089;SDS011;23904;52.322;10.232;2023-06-14T02:12:00;4.55;;;2.30;;
38089;SDS011;23904;52.322;10.232;2023-06-14T02:14:26;4.50;;;2.33;;
38089;SDS011;23904;52.322;10.232;2023-06-14T02:16:52;3.72;;;2.55;;
38089;SDS011;23904;52.322;10.232;2023-06-14T02:19:18;4.78;;;2.78;;
38089;SDS011;23904;52.322;10.232;2023-06-14T02:21:45;6.72;;;2.38;;
38089;SDS011;23904;52.322;10.232;2023-06-14T02:24:11;5.15;;;2.20;;
38089;SDS011;23904;52.322;10.232;2023-06-14T02:26:38;4.45;;;2.78;;
38089;SDS011;23904;52.322;10.232;2023-06-14T02:29:04;8.13;;;2.40;;
38089;SDS011;23904;52.322;10.232;2023-06-14T02:31:31;4.03;;;2.80;;
38089;SDS011;23904;52.322;10.232;2023-06-14T02:33:57;4.95;;;2.50;;
38089;SDS011;23904;52.322;10.232;2023-06-14T02:36:23;3.90;;;2.05;;
38089;SDS011;23904;52.322;10.232;2023-06-14T02:38:49;5.20;;;3.03;;
38089;SDS011;23904;52.322;10.232;2023-06-14T02:41:15;9.85;;;2.50;;
38089;SDS011;23904;52.322;10.232;2023-06-14T02:43:40;5.35;;;2.65;;
38089;SDS011;23904;52.322;10.232;2023-06-14T02:46:06;4.20;;;2.58;;
38089;SDS011;23904;52.322;10.232;2023-06-14T02:48:32;6.30;;;2.70;;
38089;SDS011;23904;52.322;10.232;2023-06-14T02:50:58;4.05;;;2.45;;
38089;SDS011;23904;52.322;10.232;2023-06-14T02:53:23;5.53;;;2.40;;
38089;SDS011;23904;52.322;10.232;2023-06-14T02:55:49;6.70;;;2.88;;
38089;SDS011;23904;52.322;10.232;2023-06-14T02:58:14;6.97;;;2.33;;
38089;SDS011;23904;52.322;10.232;2023-06-14T03:00:41;6.63;;;2.33;;
38089;SDS011;23904;52.322;10.232;2023-06-14T03:03:07;8.40;;;3.13;;
38089;SDS011;23904;52.322;10.232;2023-06-14T03:05:41;4.45;;;2.70;;
38089;SDS011;23904;52.322;10.232;2023-06-14T03:08:14;4.35;;;2.28;;
38089;SDS011;23904;52.322;10.232;2023-06-14T03:10:42;8.85;;;2.85;;
38089;SDS011;23904;52.322;10.232;2023-06-14T03:13:08;6.55;;;2.28;;
38089;SDS011;23904;52.322;10.232;2023-06-14T03:15:36;3.95;;;2.40;;
38089;SDS011;23904;52.322;10.232;2023-06-14T03:18:01;5.18;;;2.50;;
38089;SDS011;23904;52.322;10.232;2023-06-14T03:20:28;4.20;;;2.30;;
38089;SDS011;23904;52.322;10.232;2023-06-14T03:22:58;5.57;;;2.38;;
38089;SDS011;23904;52.322;10.232;2023-06-14T03:25:25;5.53;;;2.65;;
38089;SDS011;23904;52.322;10.232;2023-06-14T03:27:54;10.15;;;2.65;;
38089;SDS011;23904;52.322;10.232;2023-06-14T03:30:20;6.43;;;2.80;;
38089;SDS011;23904;52.322;10.232;2023-06-14T03:32:46;5.00;;;2.30;;
38089;SDS011;23904;52.322;10.232;2023-06-14T03:35:12;5.20;;;2.72;;
38089;SDS011;23904;52.322;10.232;2023-06-14T03:37:42;3.80;;;2.53;;
38089;SDS011;23904;52.322;10.232;2023-06-14T03:40:09;4.57;;;2.83;;
38089;SDS011;23904;52.322;10.232;2023-06-14T03:42:36;8.02;;;3.00;;
38089;SDS011;23904;52.322;10.232;2023-06-14T03:45:01;9.02;;;2.72;;
38089;SDS011;23904;52.322;10.232;2023-06-14T03:47:27;5.40;;;2.78;;
38089;SDS011;23904;52.322;10.232;2023-06-14T03:49:53;4.38;;;2.70;;
38089;SDS011;23904;52.322;10.232;2023-06-14T03:52:18;5.28;;;2.53;;
38089;SDS011;23904;52.322;10.232;2023-06-14T03:54:44;5.95;;;3.05;;
38089;SDS011;23904;52.322;10.232;2023-06-14T03:57:09;4.10;;;2.42;;
38089;SDS011;23904;52.322;10.232;2023-06-14T03:59:35;6.13;;;3.33;;
38089;SDS011;23904;52.322;10.232;2023-06-14T04:02:01;4.15;;;2.47;;
38089;SDS011;23904;52.322;10.232;2023-06-14T04:04:27;4.78;;;2.50;;
38089;SDS011;23904;52.322;10.232;2023-06-14T04:06:54;4.03;;;2.72;;
38089;SDS011;23904;52.322;10.232;2023-06-14T04:09:23;4.18;;;2.58;;
38089;SDS011;23904;52.322;10.232;2023-06-14T04:11:50;6.43;;;2.60;;
38089;SDS011;23904;52.322;10.232;2023-06-14T04:14:17;8.05;;;2.45;;
38089;SDS011;23904;52.322;10.232;2023-06-14T04:16:44;3.45;;;2.40;;
38089;SDS011;23904;52.322;10.232;2023-06-14T04:19:11;4.90;;;2.75;;
38089;SDS011;23904;52.322;10.232;2023-06-14T04:21:37;7.25;;;3.03;;
38089;SDS011;23904;52.322;10.232;2023-06-14T04:24:02;4.35;;;2.40;;
38089;SDS011;23904;52.322;10.232;2023-06-14T04:26:29;5.18;;;2.95;;
38089;SDS011;23904;52.322;10.232;2023-06-14T04:28:55;3.50;;;2.45;;
38089;SDS011;23904;52.322;10.232;2023-06-14T04:31:22;4.82;;;3.22;;
38089;SDS011;23904;52.322;10.232;2023-06-14T04:33:51;6.82;;;2.83;;
38089;SDS011;23904;52.322;10.232;2023-06-14T04:36:18;8.60;;;2.90;;
38089;SDS011;23904;52.322;10.232;2023-06-14T04:38:44;5.88;;;2.50;;
38089;SDS011;23904;52.322;10.232;2023-06-14T04:41:11;4.53;;;2.65;;
38089;SDS011;23904;52.322;10.232;2023-06-14T04:43:37;10.93;;;2.92;;
38089;SDS011;23904;52.322;10.232;2023-06-14T04:46:03;4.72;;;2.80;;
38089;SDS011;23904;52.322;10.232;2023-06-14T04:48:31;3.97;;;2.55;;
38089;SDS011;23904;52.322;10.232;2023-06-14T04:50:57;8.68;;;2.72;;
38089;SDS011;23904;52.322;10.232;2023-06-14T04:53:23;9.00;;;2.97;;
38089;SDS011;23904;52.322;10.232;2023-06-14T04:55:48;5.85;;;2.90;;
38089;SDS011;23904;52.322;10.232;2023-06-14T04:58:15;6.05;;;2.72;;
38089;SDS011;23904;52.322;10.232;2023-06-14T05:00:41;5.07;;;2.67;;
38089;SDS011;23904;52.322;10.232;2023-06-14T05:03:08;6.05;;;3.13;;
38089;SDS011;23904;52.322;10.232;2023-06-14T05:05:34;4.90;;;2.70;;
38089;SDS011;23904;52.322;10.232;2023-06-14T05:08:00;6.30;;;2.83;;
38089;SDS011;23904;52.322;10.232;2023-06-14T05:10:25;5.00;;;2.75;;
38089;SDS011;23904;52.322;10.232;2023-06-14T05:12:51;5.18;;;2.53;;
38089;SDS011;23904;52.322;10.232;2023-06-14T05:15:17;9.40;;;3.00;;
38089;SDS011;23904;52.322;10.232;2023-06-14T05:17:44;7.20;;;2.45;;
38089;SDS011;23904;52.322;10.232;2023-06-14T05:20:18;5.93;;;3.05;;
38089;SDS011;23904;52.322;10.232;2023-06-14T05:22:43;5.97;;;3.15;;
38089;SDS011;23904;52.322;10.232;2023-06-14T05:25:09;6.97;;;2.40;;
38089;SDS011;23904;52.322;10.232;2023-06-14T05:27:34;5.90;;;2.85;;
38089;SDS011;23904;52.322;10.232;2023-06-14T05:30:02;6.47;;;2.40;;
38089;SDS011;23904;52.322;10.232;2023-06-14T05:32:28;4.57;;;2.28;;
38089;SDS011;23904;52.322;10.232;2023-06-14T05:34:54;4.07;;;2.67;;
38089;SDS011;23904;52.322;10.232;2023-06-14T05:37:20;8.68;;;2.83;;
38089;SDS011;23904;52.322;10.232;2023-06-14T05:39:45;4.45;;;2.38;;
38089;SDS011;23904;52.322;10.232;2023-06-14T05:42:11;7.00;;;2.63;;
38089;SDS011;23904;52.322;10.232;2023-06-14T05:44:37;7.25;;;3.88;;
38089;SDS011;23904;52.322;10.232;2023-06-14T05:47:02;8.13;;;3.08;;
38089;SDS011;23904;52.322;10.232;2023-06-14T05:49:28;7.35;;;3.00;;
38089;SDS011;23904;52.322;10.232;2023-06-14T05:51:54;5.40;;;2.45;;
38089;SDS011;23904;52.322;10.232;2023-06-14T05:54:19;8.50;;;2.85;;
38089;SDS011;23904;52.322;10.232;2023-06-14T05:56:45;10.00;;;3.20;;
38089;SDS011;23904;52.322;10.232;2023-06-14T05:59:10;5.47;;;2.70;;
38089;SDS011;23904;52.322;10.232;2023-06-14T06:01:36;8.75;;;3.25;;
38089;SDS011;23904;52.322;10.232;2023-06-14T06:04:01;4.88;;;2.70;;
38089;SDS011;23904;52.322;10.232;2023-06-14T06:06:27;6.68;;;2.63;;
38089;SDS011;23904;52.322;10.232;2023-06-14T06:08:53;4.43;;;2.58;;
38089;SDS011;23904;52.322;10.232;2023-06-14T06:11:19;3.95;;;2.83;;
38089;SDS011;23904;52.322;10.232;2023-06-14T06:13:45;3.75;;;2.58;;
38089;SDS011;23904;52.322;10.232;2023-06-14T06:16:10;9.75;;;3.83;;
38089;SDS011;23904;52.322;10.232;2023-06-14T06:18:36;5.93;;;3.50;;
38089;SDS011;23904;52.322;10.232;2023-06-14T06:21:03;5.38;;;3.28;;
38089;SDS011;23904;52.322;10.232;2023-06-14T06:23:29;7.10;;;3.08;;
38089;SDS011;23904;52.322;10.232;2023-06-14T06:25:55;6.30;;;3.05;;
38089;SDS011;23904;52.322;10.232;2023-06-14T06:28:20;6.18;;;3.35;;
38089;SDS011;23904;52.322;10.232;2023-06-14T06:30:46;4.57;;;2.95;;
38089;SDS011;23904;52.322;10.232;2023-06-14T06:33:11;4.85;;;2.75;;
38089;SDS011;23904;52.322;10.232;2023-06-14T06:35:38;4.70;;;3.10;;
38089;SDS011;23904;52.322;10.232;2023-06-14T06:38:03;5.53;;;2.45;;
38089;SDS011;23904;52.322;10.232;2023-06-14T06:40:29;5.75;;;3.05;;
38089;SDS011;23904;52.322;10.232;2023-06-14T06:42:54;4.05;;;2.92;;
38089;SDS011;23904;52.322;10.232;2023-06-14T06:45:20;3.72;;;2.58;;
38089;SDS011;23904;52.322;10.232;2023-06-14T06:47:46;4.57;;;2.88;;
38089;SDS011;23904;52.322;10.232;2023-06-14T06:50:11;7.05;;;2.72;;
38089;SDS011;23904;52.322;10.232;2023-06-14T06:52:37;6.35;;;2.95;;
38089;SDS011;23904;52.322;10.232;2023-06-14T06:55:02;5.50;;;2.30;;
38089;SDS011;23904;52.322;10.232;2023-06-14T06:57:28;3.95;;;2.60;;
38089;SDS011;23904;52.322;10.232;2023-06-14T06:59:54;6.07;;;2.88;;
38089;SDS011;23904;52.322;10.232;2023-06-14T07:02:20;5.75;;;3.20;;
38089;SDS011;23904;52.322;10.232;2023-06-14T07:04:45;5.20;;;2.90;;
38089;SDS011;23904;52.322;10.232;2023-06-14T07:07:11;6.22;;;2.78;;
38089;SDS011;23904;52.322;10.232;2023-06-14T07:09:37;5.55;;;2.88;;
38089;SDS011;23904;52.322;10.232;2023-06-14T07:12:02;6.80;;;2.60;;
38089;SDS011;23904;52.322;10.232;2023-06-14T07:14:28;5.60;;;2.92;;
38089;SDS011;23904;52.322;10.232;2023-06-14T07:16:55;8.05;;;3.00;;
38089;SDS011;23904;52.322;10.232;2023-06-14T07:19:20;4.35;;;2.65;;
38089;SDS011;23904;52.322;10.232;2023-06-14T07:21:46;5.15;;;3.03;;
38089;SDS011;23904;52.322;10.232;2023-06-14T07:24:11;5.28;;;3.15;;
38089;SDS011;23904;52.322;10.232;2023-06-14T07:26:37;4.13;;;2.70;;
38089;SDS011;23904;52.322;10.232;2023-06-14T07:29:02;5.32;;;2.53;;
38089;SDS011;23904;52.322;10.232;2023-06-14T07:31:28;4.15;;;2.58;;
38089;SDS011;23904;52.322;10.232;2023-06-14T07:33:54;4.75;;;2.50;;
38089;SDS011;23904;52.322;10.232;2023-06-14T07:36:19;4.47;;;2.80;;
38089;SDS011;23904;52.322;10.232;2023-06-14T07:38:45;4.43;;;2.30;;
38089;SDS011;23904;52.322;10.232;2023-06-14T07:41:11;3.90;;;2.60;;
38089;SDS011;23904;52.322;10.232;2023-06-14T07:43:37;4.82;;;2.90;;
38089;SDS011;23904;52.322;10.232;2023-06-14T07:46:02;3.60;;;2.50;;
38089;SDS011;23904;52.322;10.232;2023-06-14T07:48:30;4.30;;;2.25;;
38089;SDS011;23904;52.322;10.232;2023-06-14T07:50:55;13.70;;;3.30;;
38089;SDS011;23904;52.322;10.232;2023-06-14T07:53:21;7.28;;;2.25;;
38089;SDS011;23904;52.322;10.232;2023-06-14T07:55:46;5.88;;;2.50;;
38089;SDS011;23904;52.322;10.232;2023-06-14T07:58:13;6.85;;;2.50;;
38089;SDS011;23904;52.322;10.232;2023-06-14T08:00:39;5.43;;;2.10;;
38089;SDS011;23904;52.322;10.232;2023-06-14T08:03:04;3.05;;;2.15;;
38089;SDS011;23904;52.322;10.232;2023-06-14T08:05:30;4.95;;;2.50;;
38089;SDS011;23904;52.322;10.232;2023-06-14T08:07:55;3.20;;;2.40;;
38089;SDS011;23904;52.322;10.232;2023-06-14T08:10:21;4.15;;;2.10;;
38089;SDS011;23904;52.322;10.232;2023-06-14T08:12:47;3.53;;;2.17;;
38089;SDS011;23904;52.322;10.232;2023-06-14T08:15:15;3.45;;;2.10;;
38089;SDS011;23904;52.322;10.232;2023-06-14T08:17:44;3.30;;;1.92;;
38089;SDS011;23904;52.322;10.232;2023-06-14T08:20:10;3.45;;;2.10;;
38089;SDS011;23904;52.322;10.232;2023-06-14T08:22:37;3.85;;;2.25;;
38089;SDS011;23904;52.322;10.232;2023-06-14T08:25:03;3.20;;;1.80;;
38089;SDS011;23904;52.322;10.232;2023-06-14T08:27:32;4.85;;;1.85;;
38089;SDS011;23904;52.322;10.232;2023-06-14T08:29:57;3.63;;;1.92;;
38089;SDS011;23904;52.322;10.232;2023-06-14T08:32:23;3.25;;;1.70;;
38089;SDS011;23904;52.322;10.232;2023-06-14T08:34:48;3.72;;;1.98;;
38089;SDS011;23904;52.322;10.232;2023-06-14T08:37:14;4.22;;;1.90;;
38089;SDS011;23904;52.322;10.232;2023-06-14T08:39:40;4.20;;;1.80;;
38089;SDS011;23904;52.322;10.232;2023-06-14T08:42:06;5.93;;;2.25;;
38089;SDS011;23904;52.322;10.232;2023-06-14T08:44:33;4.40;;;2.00;;
38089;SDS011;23904;52.322;10.232;2023-06-14T08:46:59;6.20;;;1.70;;
38089;SDS011;23904;52.322;10.232;2023-06-14T08:49:25;4.07;;;1.90;;
38089;SDS011;23904;52.322;10.232;2023-06-14T08:51:58;4.00;;;1.88;;
38089;SDS011;23904;52.322;10.232;2023-06-14T08:54:25;4.22;;;2.13;;
38089;SDS011;23904;52.322;10.232;2023-06-14T08:56:55;4.60;;;1.90;;
38089;SDS011;23904;52.322;10.232;2023-06-14T08:59:24;3.28;;;2.00;;
38089;SDS011;23904;52.322;10.232;2023-06-14T09:01:51;4.47;;;2.05;;
38089;SDS011;23904;52.322;10.232;2023-06-14T09:04:19;6.60;;;2.17;;
38089;SDS011;23904;52.322;10.232;2023-06-14T09:06:54;4.15;;;2.20;;
38089;SDS011;23904;52.322;10.232;2023-06-14T09:09:20;4.65;;;2.20;;
38089;SDS011;23904;52.322;10.232;2023-06-14T09:11:50;3.42;;;2.40;;
38089;SDS011;23904;52.322;10.232;2023-06-14T09:14:20;3.22;;;1.90;;
38089;SDS011;23904;52.322;10.232;2023-06-14T09:16:48;4.10;;;2.28;;
38089;SDS011;23904;52.322;10.232;2023-06-14T09:19:21;3.17;;;1.83;;
38089;SDS011;23904;52.322;10.232;2023-06-14T09:21:50;4.45;;;2.30;;
38089;SDS011;23904;52.322;10.232;2023-06-14T09:24:17;4.70;;;3.08;;
38089;SDS011;23904;52.322;10.232;2023-06-14T09:26:47;3.40;;;1.77;;
38089;SDS011;23904;52.322;10.232;2023-06-14T09:29:12;2.17;;;1.58;;
38089;SDS011;23904;52.322;10.232;2023-06-14T09:31:38;4.53;;;1.88;;
38089;SDS011;23904;52.322;10.232;2023-06-14T09:34:04;4.07;;;2.00;;
38089;SDS011;23904;52.322;10.232;2023-06-14T09:36:31;4.70;;;1.80;;
38089;SDS011;23904;52.322;10.232;2023-06-14T09:41:38;2.75;;;1.70;;
38089;SDS011;23904;52.322;10.232;2023-06-14T09:44:06;2.92;;;2.10;;
38089;SDS011;23904;52.322;10.232;2023-06-14T09:46:33;3.15;;;1.98;;
38089;SDS011;23904;52.322;10.232;2023-06-14T09:49:01;4.43;;;1.98;;
38089;SDS011;23904;52.322;10.232;2023-06-14T09:51:28;4.70;;;2.40;;
38089;SDS011;23904;52.322;10.232;2023-06-14T09:53:58;4.90;;;2.67;;
38089;SDS011;23904;52.322;10.232;2023-06-14T09:56:27;4.43;;;1.77;;
38089;SDS011;23904;52.322;10.232;2023-06-14T09:58:55;6.10;;;2.05;;
38089;SDS011;23904;52.322;10.232;2023-06-14T10:01:26;4.55;;;1.88;;
38089;SDS011;23904;52.322;10.232;2023-06-14T10:03:57;3.72;;;2.20;;
38089;SDS011;23904;52.322;10.232;2023-06-14T10:06:28;5.85;;;2.17;;
38089;SDS011;23904;52.322;10.232;2023-06-14T10:08:56;5.07;;;2.20;;
38089;SDS011;23904;52.322;10.232;2023-06-14T10:11:25;4.90;;;2.28;;
38089;SDS011;23904;52.322;10.232;2023-06-14T10:13:51;3.05;;;2.20;;
38089;SDS011;23904;52.322;10.232;2023-06-14T10:16:34;3.00;;;2.00;;
38089;SDS011;23904;52.322;10.232;2023-06-14T10:19:27;6.28;;;2.38;;
38089;SDS011;23904;52.322;10.232;2023-06-14T10:22:12;4.85;;;2.70;;
38089;SDS011;23904;52.322;10.232;2023-06-14T10:24:47;3.65;;;2.25;;
38089;SDS011;23904;52.322;10.232;2023-06-14T10:27:15;7.13;;;2.42;;
38089;SDS011;23904;52.322;10.232;2023-06-14T10:32:22;5.57;;;2.17;;
38089;SDS011;23904;52.322;10.232;2023-06-14T10:34:53;4.47;;;2.17;;
38089;SDS011;23904;52.322;10.232;2023-06-14T10:37:25;3.40;;;2.40;;
38089;SDS011;23904;52.322;10.232;2023-06-14T10:39:51;4.20;;;2.28;;
38089;SDS011;23904;52.322;10.232;2023-06-14T10:42:18;6.78;;;2.55;;
38089;SDS011;23904;52.322;10.232;2023-06-14T10:50:09;5.53;;;2.72;;
38089;SDS011;23904;52.322;10.232;2023-06-14T10:52:43;4.85;;;2.88;;
38089;SDS011;23904;52.322;10.232;2023-06-14T10:55:12;5.55;;;2.75;;
38089;SDS011;23904;52.322;10.232;2023-06-14T10:57:50;4.50;;;2.80;;
38089;SDS011;23904;52.322;10.232;2023-06-14T11:00:25;5.70;;;2.55;;
38089;SDS011;23904;52.322;10.232;2023-06-14T11:05:51;5.75;;;2.67;;
38089;SDS011;23904;52.322;10.232;2023-06-14T11:11:34;4.57;;;2.55;;
38089;SDS011;23904;52.322;10.232;2023-06-14T11:14:02;6.20;;;2.65;;
38089;SDS011;23904;52.322;10.232;2023-06-14T11:16:27;5.93;;;2.50;;
38089;SDS011;23904;52.322;10.232;2023-06-14T11:18:54;8.23;;;3.42;;
38089;SDS011;23904;52.322;10.232;2023-06-14T11:21:20;9.30;;;2.78;;
38089;SDS011;23904;52.322;10.232;2023-06-14T11:23:49;10.00;;;3.20;;
38089;SDS011;23904;52.322;10.232;2023-06-14T11:26:23;6.47;;;3.10;;
38089;SDS011;23904;52.322;10.232;2023-06-14T11:28:59;11.60;;;3.17;;
38089;SDS011;23904;52.322;10.232;2023-06-14T11:31:26;4.80;;;2.88;;
38089;SDS011;23904;52.322;10.232;2023-06-14T11:33:53;4.68;;;3.17;;
38089;SDS011;23904;52.322;10.232;2023-06-14T11:36:21;4.82;;;2.85;;
38089;SDS011;23904;52.322;10.232;2023-06-14T11:38:47;7.50;;;3.45;;
38089;SDS011;23904;52.322;10.232;2023-06-14T11:41:13;6.68;;;3.20;;
38089;SDS011;23904;52.322;10.232;2023-06-14T11:43:39;7.57;;;3.63;;
38089;SDS011;23904;52.322;10.232;2023-06-14T11:46:06;5.57;;;3.53;;
38089;SDS011;23904;52.322;10.232;2023-06-14T11:48:40;6.55;;;3.47;;
38089;SDS011;23904;52.322;10.232;2023-06-14T11:51:07;11.20;;;3.72;;
38089;SDS011;23904;52.322;10.232;2023-06-14T11:53:36;8.18;;;3.72;;
38089;SDS011;23904;52.322;10.232;2023-06-14T11:56:02;9.40;;;4.05;;
38089;SDS011;23904;52.322;10.232;2023-06-14T11:58:28;6.47;;;3.30;;
38089;SDS011;23904;52.322;10.232;2023-06-14T12:00:55;7.75;;;3.42;;
38089;SDS011;23904;52.322;10.232;2023-06-14T12:03:24;8.73;;;4.38;;
38089;SDS011;23904;52.322;10.232;2023-06-14T12:05:50;9.85;;;3.75;;
38089;SDS011;23904;52.322;10.232;2023-06-14T12:08:36;3.60;;;2.90;;
38089;SDS011;23904;52.322;10.232;2023-06-14T12:11:06;6.30;;;3.58;;
38089;SDS011;23904;52.322;10.232;2023-06-14T12:13:39;7.50;;;3.60;;
38089;SDS011;23904;52.322;10.232;2023-06-14T12:16:07;7.43;;;3.00;;
38089;SDS011;23904;52.322;10.232;2023-06-14T12:18:37;5.10;;;3.28;;
38089;SDS011;23904;52.322;10.232;2023-06-14T12:21:06;7.60;;;3.05;;
38089;SDS011;23904;52.322;10.232;2023-06-14T12:24:06;7.03;;;3.58;;
38089;SDS011;23904;52.322;10.232;2023-06-14T12:26:24;4.18;;;3.05;;
38089;SDS011;23904;52.322;10.232;2023-06-14T12:28:51;8.52;;;3.72;;
38089;SDS011;23904;52.322;10.232;2023-06-14T12:31:17;8.52;;;3.13;;
38089;SDS011;23904;52.322;10.232;2023-06-14T12:33:43;5.70;;;3.95;;
38089;SDS011;23904;52.322;10.232;2023-06-14T12:36:10;9.25;;;3.55;;
38089;SDS011;23904;52.322;10.232;2023-06-14T12:38:36;5.03;;;3.55;;
38089;SDS011;23904;52.322;10.232;2023-06-14T12:41:02;6.20;;;3.40;;
38089;SDS011;23904;52.322;10.232;2023-06-14T12:43:29;9.00;;;3.38;;
38089;SDS011;23904;52.322;10.232;2023-06-14T12:45:55;7.15;;;3.60;;
38089;SDS011;23904;52.322;10.232;2023-06-14T12:48:20;6.95;;;3.92;;
38089;SDS011;23904;52.322;10.232;2023-06-14T12:50:47;6.28;;;3.85;;
38089;SDS011;23904;52.322;10.232;2023-06-14T12:53:13;12.27;;;3.97;;
38089;SDS011;23904;52.322;10.232;2023-06-14T12:55:39;11.07;;;3.50;;
38089;SDS011;23904;52.322;10.232;2023-06-14T12:58:04;7.60;;;3.70;;
38089;SDS011;23904;52.322;10.232;2023-06-14T13:00:30;11.48;;;3.65;;
38089;SDS011;23904;52.322;10.232;2023-06-14T13:02:56;7.57;;;3.60;;
38089;SDS011;23904;52.322;10.232;2023-06-14T13:05:22;5.63;;;3.22;;
38089;SDS011;23904;52.322;10.232;2023-06-14T13:07:48;8.05;;;3.70;;
38089;SDS011;23904;52.322;10.232;2023-06-14T13:10:15;6.97;;;3.17;;
38089;SDS011;23904;52.322;10.232;2023-06-14T13:12:42;8.90;;;3.50;;
38089;SDS011;23904;52.322;10.232;2023-06-14T13:15:08;10.88;;;4.90;;
38089;SDS011;23904;52.322;10.232;2023-06-14T13:17:35;7.15;;;3.22;;
38089;SDS011;23904;52.322;10.232;2023-06-14T13:20:04;9.05;;;3.95;;
38089;SDS011;23904;52.322;10.232;2023-06-14T13:22:31;7.90;;;3.42;;
38089;SDS011;23904;52.322;10.232;2023-06-14T13:24:57;8.35;;;3.08;;
38089;SDS011;23904;52.322;10.232;2023-06-14T13:27:23;6.80;;;3.25;;
38089;SDS011;23904;52.322;10.232;2023-06-14T13:29:49;8.27;;;4.38;;
38089;SDS011;23904;52.322;10.232;2023-06-14T13:32:15;6.40;;;3.28;;
38089;SDS011;23904;52.322;10.232;2023-06-14T13:34:41;7.15;;;3.20;;
38089;SDS011;23904;52.322;10.232;2023-06-14T13:37:06;9.45;;;4.20;;
38089;SDS011;23904;52.322;10.232;2023-06-14T13:39:32;8.82;;;3.33;;
38089;SDS011;23904;52.322;10.232;2023-06-14T13:41:57;9.52;;;3.90;;
38089;SDS011;23904;52.322;10.232;2023-06-14T13:44:22;10.20;;;4.10;;
38089;SDS011;23904;52.322;10.232;2023-06-14T13:46:49;8.00;;;3.63;;
38089;SDS011;23904;52.322;10.232;2023-06-14T13:49:15;6.55;;;3.83;;
38089;SDS011;23904;52.322;10.232;2023-06-14T13:51:42;8.90;;;3.63;;
38089;SDS011;23904;52.322;10.232;2023-06-14T13:54:08;7.40;;;4.18;;
38089;SDS011;23904;52.322;10.232;2023-06-14T13:56:33;7.22;;;3.88;;
38089;SDS011;23904;52.322;10.232;2023-06-14T13:58:59;5.97;;;3.42;;
38089;SDS011;23904;52.322;10.232;2023-06-14T14:01:25;6.60;;;3.65;;
38089;SDS011;23904;52.322;10.232;2023-06-14T14:03:53;8.80;;;3.63;;
38089;SDS011;23904;52.322;10.232;2023-06-14T14:06:19;7.43;;;3.60;;
38089;SDS011;23904;52.322;10.232;2023-06-14T14:08:45;5.82;;;3.83;;
38089;SDS011;23904;52.322;10.232;2023-06-14T14:11:12;8.75;;;3.65;;
38089;SDS011;23904;52.322;10.232;2023-06-14T14:13:38;8.00;;;3.55;;
38089;SDS011;23904;52.322;10.232;2023-06-14T14:16:04;6.80;;;3.58;;
38089;SDS011;23904;52.322;10.232;2023-06-14T14:18:31;7.57;;;3.60;;
38089;SDS011;23904;52.322;10.232;2023-06-14T14:20:57;12.43;;;3.20;;
38089;SDS011;23904;52.322;10.232;2023-06-14T14:23:23;4.55;;;3.45;;
38089;SDS011;23904;52.322;10.232;2023-06-14T14:25:49;7.88;;;4.03;;
38089;SDS011;23904;52.322;10.232;2023-06-14T14:28:15;12.10;;;3.72;;
38089;SDS011;23904;52.322;10.232;2023-06-14T14:30:41;8.38;;;3.65;;
38089;SDS011;23904;52.322;10.232;2023-06-14T14:33:07;7.03;;;3.63;;
38089;SDS011;23904;52.322;10.232;2023-06-14T14:35:33;6.88;;;3.35;;
38089;SDS011;23904;52.322;10.232;2023-06-14T14:37:59;5.32;;;3.78;;
38089;SDS011;23904;52.322;10.232;2023-06-14T14:40:25;5.80;;;3.67;;
38089;SDS011;23904;52.322;10.232;2023-06-14T14:42:51;8.43;;;3.75;;
38089;SDS011;23904;52.322;10.232;2023-06-14T14:45:16;8.73;;;4.05;;
38089;SDS011;23904;52.322;10.232;2023-06-14T14:47:42;7.18;;;3.78;;
38089;SDS011;23904;52.322;10.232;2023-06-14T14:50:08;6.75;;;3.42;;
38089;SDS011;23904;52.322;10.232;2023-06-14T14:52:34;5.78;;;3.22;;
38089;SDS011;23904;52.322;10.232;2023-06-14T14:55:00;6.60;;;3.55;;
38089;SDS011;23904;52.322;10.232;2023-06-14T14:57:26;8.77;;;3.08;;